sensor_id;sensor_type;location;lat;lon;timestamp;P1;durP1;ratioP1;P2;durP2;ratioP2
68583;SDS011;55557;49.220;11.150;2023-09-18T00:02:25;4.17;;;3.63;;
68583;SDS011;55557;49.220;11.150;2023-09-18T00:04:53;4.30;;;3.90;;
68583;SDS011;55557;49.220;11.150;2023-09-18T00:07:19;4.50;;;3.47;;
68583;SDS011;55557;49.220;11.150;2023-09-18T00:09:45;5.10;;;4.07;;
68583;SDS011;55557;49.220;11.150;2023-09-18T00:12:11;4.27;;;3.80;;
68583;SDS011;55557;49.220;11.150;2023-09-18T00:14:37;4.80;;;4.30;;
68583;SDS011;55557;49.220;11.150;2023-09-18T00:17:03;4.37;;;3.80;;
68583;SDS011;55557;49.220;11.150;2023-09-18T00:19:29;7.37;;;4.20;;
68583;SDS011;55557;49.220;11.150;2023-09-18T00:21:57;4.93;;;3.90;;
68583;SDS011;55557;49.220;11.150;2023-09-18T00:24:25;5.13;;;3.47;;
68583;SDS011;55557;49.220;11.150;2023-09-18T00:26:51;4.07;;;3.67;;
68583;SDS011;55557;49.220;11.150;2023-09-18T00:29:18;4.23;;;3.63;;
68583;SDS011;55557;49.220;11.150;2023-09-18T00:31:44;3.80;;;3.27;;
68583;SDS011;55557;49.220;11.150;2023-09-18T00:34:10;5.93;;;3.70;;
68583;SDS011;55557;49.220;11.150;2023-09-18T00:36:36;4.57;;;3.70;;
68583;SDS011;55557;49.220;11.150;2023-09-18T00:39:03;4.27;;;3.83;;
68583;SDS011;55557;49.220;11.150;2023-09-18T00:41:29;6.03;;;3.30;;
68583;SDS011;55557;49.220;11.150;2023-09-18T00:43:55;5.13;;;3.97;;
68583;SDS011;55557;49.220;11.150;2023-09-18T00:46:21;4.13;;;3.40;;
68583;SDS011;55557;49.220;11.150;2023-09-18T00:48:48;4.60;;;3.67;;
68583;SDS011;55557;49.220;11.150;2023-09-18T00:51:14;5.23;;;3.60;;
68583;SDS011;55557;49.220;11.150;2023-09-18T00:53:42;4.73;;;4.00;;
68583;SDS011;55557;49.220;11.150;2023-09-18T00:56:09;6.40;;;4.37;;
68583;SDS011;55557;49.220;11.150;2023-09-18T00:58:35;3.40;;;3.10;;
68583;SDS011;55557;49.220;11.150;2023-09-18T01:01:03;4.60;;;3.80;;
68583;SDS011;55557;49.220;11.150;2023-09-18T01:03:29;3.27;;;2.97;;
68583;SDS011;55557;49.220;11.150;2023-09-18T01:05:55;3.40;;;2.80;;
68583;SDS011;55557;49.220;11.150;2023-09-18T01:08:22;5.70;;;3.80;;
68583;SDS011;55557;49.220;11.150;2023-09-18T01:11:00;3.87;;;3.50;;
68583;SDS011;55557;49.220;11.150;2023-09-18T01:13:33;4.27;;;3.43;;
68583;SDS011;55557;49.220;11.150;2023-09-18T01:16:15;4.17;;;3.63;;
68583;SDS011;55557;49.220;11.150;2023-09-18T01:18:49;3.83;;;3.33;;
68583;SDS011;55557;49.220;11.150;2023-09-18T01:21:15;6.37;;;3.53;;
68583;SDS011;55557;49.220;11.150;2023-09-18T01:23:41;5.47;;;3.47;;
68583;SDS011;55557;49.220;11.150;2023-09-18T01:26:07;5.93;;;3.97;;
68583;SDS011;55557;49.220;11.150;2023-09-18T01:28:33;4.23;;;3.47;;
68583;SDS011;55557;49.220;11.150;2023-09-18T01:30:59;4.73;;;3.70;;
68583;SDS011;55557;49.220;11.150;2023-09-18T01:33:26;4.27;;;3.10;;
68583;SDS011;55557;49.220;11.150;2023-09-18T01:35:52;3.33;;;2.93;;
68583;SDS011;55557;49.220;11.150;2023-09-18T01:38:20;5.70;;;3.10;;
68583;SDS011;55557;49.220;11.150;2023-09-18T01:40:47;3.63;;;3.33;;
68583;SDS011;55557;49.220;11.150;2023-09-18T01:43:13;4.70;;;2.97;;
68583;SDS011;55557;49.220;11.150;2023-09-18T01:45:39;5.97;;;3.23;;
68583;SDS011;55557;49.220;11.150;2023-09-18T01:48:05;3.90;;;3.30;;
68583;SDS011;55557;49.220;11.150;2023-09-18T01:50:31;4.63;;;3.70;;
68583;SDS011;55557;49.220;11.150;2023-09-18T01:53:00;4.80;;;3.10;;
68583;SDS011;55557;49.220;11.150;2023-09-18T01:55:27;3.40;;;3.10;;
68583;SDS011;55557;49.220;11.150;2023-09-18T01:57:54;4.83;;;3.57;;
68583;SDS011;55557;49.220;11.150;2023-09-18T02:00:20;3.77;;;3.30;;
68583;SDS011;55557;49.220;11.150;2023-09-18T02:02:46;5.07;;;3.37;;
68583;SDS011;55557;49.220;11.150;2023-09-18T02:05:12;4.73;;;3.53;;
68583;SDS011;55557;49.220;11.150;2023-09-18T02:07:38;5.73;;;3.60;;
68583;SDS011;55557;49.220;11.150;2023-09-18T02:10:05;4.30;;;3.37;;
68583;SDS011;55557;49.220;11.150;2023-09-18T02:12:31;4.57;;;3.77;;
68583;SDS011;55557;49.220;11.150;2023-09-18T02:14:58;6.40;;;3.87;;
68583;SDS011;55557;49.220;11.150;2023-09-18T02:17:29;7.20;;;3.70;;
68583;SDS011;55557;49.220;11.150;2023-09-18T02:19:55;3.80;;;3.50;;
68583;SDS011;55557;49.220;11.150;2023-09-18T02:22:21;3.97;;;3.37;;
68583;SDS011;55557;49.220;11.150;2023-09-18T02:24:47;6.60;;;3.40;;
68583;SDS011;55557;49.220;11.150;2023-09-18T02:27:13;3.97;;;3.33;;
68583;SDS011;55557;49.220;11.150;2023-09-18T02:29:39;4.27;;;3.60;;
68583;SDS011;55557;49.220;11.150;2023-09-18T02:32:05;8.10;;;3.77;;
68583;SDS011;55557;49.220;11.150;2023-09-18T02:34:31;4.90;;;3.87;;
68583;SDS011;55557;49.220;11.150;2023-09-18T02:36:58;3.67;;;3.27;;
68583;SDS011;55557;49.220;11.150;2023-09-18T02:39:24;4.73;;;4.07;;
68583;SDS011;55557;49.220;11.150;2023-09-18T02:41:50;4.87;;;3.90;;
68583;SDS011;55557;49.220;11.150;2023-09-18T02:44:16;4.00;;;3.60;;
68583;SDS011;55557;49.220;11.150;2023-09-18T02:46:42;4.47;;;3.50;;
68583;SDS011;55557;49.220;11.150;2023-09-18T02:49:08;4.83;;;3.77;;
68583;SDS011;55557;49.220;11.150;2023-09-18T02:51:34;4.83;;;4.03;;
68583;SDS011;55557;49.220;11.150;2023-09-18T02:54:01;5.70;;;3.20;;
68583;SDS011;55557;49.220;11.150;2023-09-18T02:56:27;3.87;;;3.47;;
68583;SDS011;55557;49.220;11.150;2023-09-18T02:58:53;4.47;;;3.27;;
68583;SDS011;55557;49.220;11.150;2023-09-18T03:01:19;5.70;;;3.93;;
68583;SDS011;55557;49.220;11.150;2023-09-18T03:03:45;4.00;;;3.50;;
68583;SDS011;55557;49.220;11.150;2023-09-18T03:06:11;5.23;;;3.63;;
68583;SDS011;55557;49.220;11.150;2023-09-18T03:08:38;4.17;;;3.63;;
68583;SDS011;55557;49.220;11.150;2023-09-18T03:11:10;4.03;;;3.53;;
68583;SDS011;55557;49.220;11.150;2023-09-18T03:13:37;6.47;;;4.47;;
68583;SDS011;55557;49.220;11.150;2023-09-18T03:16:09;4.30;;;3.67;;
68583;SDS011;55557;49.220;11.150;2023-09-18T03:18:36;4.17;;;3.77;;
68583;SDS011;55557;49.220;11.150;2023-09-18T03:21:02;4.67;;;3.83;;
68583;SDS011;55557;49.220;11.150;2023-09-18T03:23:28;4.37;;;3.97;;
68583;SDS011;55557;49.220;11.150;2023-09-18T03:25:54;4.90;;;3.83;;
68583;SDS011;55557;49.220;11.150;2023-09-18T03:28:20;4.17;;;3.37;;
68583;SDS011;55557;49.220;11.150;2023-09-18T03:30:46;3.90;;;3.50;;
68583;SDS011;55557;49.220;11.150;2023-09-18T03:33:12;4.70;;;4.07;;
68583;SDS011;55557;49.220;11.150;2023-09-18T03:35:45;4.67;;;3.70;;
68583;SDS011;55557;49.220;11.150;2023-09-18T03:38:12;4.70;;;3.50;;
68583;SDS011;55557;49.220;11.150;2023-09-18T03:40:38;4.17;;;3.73;;
68583;SDS011;55557;49.220;11.150;2023-09-18T03:43:04;5.93;;;3.73;;
68583;SDS011;55557;49.220;11.150;2023-09-18T03:45:30;6.50;;;4.17;;
68583;SDS011;55557;49.220;11.150;2023-09-18T03:47:56;4.83;;;3.77;;
68583;SDS011;55557;49.220;11.150;2023-09-18T03:50:22;4.93;;;4.20;;
68583;SDS011;55557;49.220;11.150;2023-09-18T03:52:48;4.03;;;3.63;;
68583;SDS011;55557;49.220;11.150;2023-09-18T03:55:14;9.50;;;4.20;;
68583;SDS011;55557;49.220;11.150;2023-09-18T03:57:41;8.33;;;3.80;;
68583;SDS011;55557;49.220;11.150;2023-09-18T04:00:08;4.17;;;3.50;;
68583;SDS011;55557;49.220;11.150;2023-09-18T04:02:34;4.00;;;3.60;;
68583;SDS011;55557;49.220;11.150;2023-09-18T04:05:00;5.73;;;4.40;;
68583;SDS011;55557;49.220;11.150;2023-09-18T04:07:27;5.73;;;4.23;;
68583;SDS011;55557;49.220;11.150;2023-09-18T04:09:53;4.83;;;4.00;;
68583;SDS011;55557;49.220;11.150;2023-09-18T04:12:19;6.43;;;3.93;;
68583;SDS011;55557;49.220;11.150;2023-09-18T04:14:45;4.70;;;3.93;;
68583;SDS011;55557;49.220;11.150;2023-09-18T04:17:11;6.13;;;3.93;;
68583;SDS011;55557;49.220;11.150;2023-09-18T04:19:37;5.80;;;3.77;;
68583;SDS011;55557;49.220;11.150;2023-09-18T04:22:03;5.33;;;3.90;;
68583;SDS011;55557;49.220;11.150;2023-09-18T04:24:29;7.13;;;4.10;;
68583;SDS011;55557;49.220;11.150;2023-09-18T04:26:55;4.80;;;4.23;;
68583;SDS011;55557;49.220;11.150;2023-09-18T04:29:21;4.90;;;4.40;;
68583;SDS011;55557;49.220;11.150;2023-09-18T04:31:47;4.57;;;4.07;;
68583;SDS011;55557;49.220;11.150;2023-09-18T04:34:13;6.13;;;3.90;;
68583;SDS011;55557;49.220;11.150;2023-09-18T04:36:39;4.47;;;4.03;;
68583;SDS011;55557;49.220;11.150;2023-09-18T04:39:06;4.23;;;3.83;;
68583;SDS011;55557;49.220;11.150;2023-09-18T04:41:34;8.03;;;4.20;;
68583;SDS011;55557;49.220;11.150;2023-09-18T04:44:00;5.37;;;4.10;;
68583;SDS011;55557;49.220;11.150;2023-09-18T04:46:26;4.80;;;4.30;;
68583;SDS011;55557;49.220;11.150;2023-09-18T04:48:52;4.43;;;3.73;;
68583;SDS011;55557;49.220;11.150;2023-09-18T04:51:18;6.80;;;4.50;;
68583;SDS011;55557;49.220;11.150;2023-09-18T04:53:44;9.37;;;4.80;;
68583;SDS011;55557;49.220;11.150;2023-09-18T04:56:10;5.57;;;4.70;;
68583;SDS011;55557;49.220;11.150;2023-09-18T04:58:36;4.57;;;4.03;;
68583;SDS011;55557;49.220;11.150;2023-09-18T05:01:02;4.73;;;3.90;;
68583;SDS011;55557;49.220;11.150;2023-09-18T05:03:35;6.63;;;4.23;;
68583;SDS011;55557;49.220;11.150;2023-09-18T05:06:01;3.70;;;3.40;;
68583;SDS011;55557;49.220;11.150;2023-09-18T05:08:28;4.60;;;3.83;;
68583;SDS011;55557;49.220;11.150;2023-09-18T05:10:54;4.43;;;3.83;;
68583;SDS011;55557;49.220;11.150;2023-09-18T05:13:20;4.03;;;3.63;;
68583;SDS011;55557;49.220;11.150;2023-09-18T05:15:46;7.90;;;4.30;;
68583;SDS011;55557;49.220;11.150;2023-09-18T05:18:12;6.80;;;4.23;;
68583;SDS011;55557;49.220;11.150;2023-09-18T05:20:39;5.70;;;4.63;;
68583;SDS011;55557;49.220;11.150;2023-09-18T05:23:05;5.53;;;4.23;;
68583;SDS011;55557;49.220;11.150;2023-09-18T05:25:38;4.67;;;4.13;;
68583;SDS011;55557;49.220;11.150;2023-09-18T05:28:06;4.87;;;4.13;;
68583;SDS011;55557;49.220;11.150;2023-09-18T05:30:34;4.17;;;3.77;;
68583;SDS011;55557;49.220;11.150;2023-09-18T05:33:03;5.03;;;4.10;;
68583;SDS011;55557;49.220;11.150;2023-09-18T05:35:33;4.77;;;3.60;;
68583;SDS011;55557;49.220;11.150;2023-09-18T05:38:01;5.87;;;4.13;;
68583;SDS011;55557;49.220;11.150;2023-09-18T05:40:28;6.00;;;4.63;;
68583;SDS011;55557;49.220;11.150;2023-09-18T05:45:58;4.77;;;4.00;;
68583;SDS011;55557;49.220;11.150;2023-09-18T05:48:24;5.50;;;4.40;;
68583;SDS011;55557;49.220;11.150;2023-09-18T05:50:50;5.53;;;3.87;;
68583;SDS011;55557;49.220;11.150;2023-09-18T05:53:17;5.13;;;4.20;;
68583;SDS011;55557;49.220;11.150;2023-09-18T05:55:44;9.07;;;4.33;;
68583;SDS011;55557;49.220;11.150;2023-09-18T05:58:11;4.73;;;4.23;;
68583;SDS011;55557;49.220;11.150;2023-09-18T06:00:37;6.30;;;4.00;;
68583;SDS011;55557;49.220;11.150;2023-09-18T06:03:05;4.00;;;3.60;;
68583;SDS011;55557;49.220;11.150;2023-09-18T06:05:32;5.90;;;4.30;;
68583;SDS011;55557;49.220;11.150;2023-09-18T06:08:00;5.87;;;4.40;;
68583;SDS011;55557;49.220;11.150;2023-09-18T06:10:26;6.53;;;3.87;;
68583;SDS011;55557;49.220;11.150;2023-09-18T06:12:52;6.63;;;3.40;;
68583;SDS011;55557;49.220;11.150;2023-09-18T06:15:19;5.87;;;3.87;;
68583;SDS011;55557;49.220;11.150;2023-09-18T06:17:46;4.50;;;3.87;;
68583;SDS011;55557;49.220;11.150;2023-09-18T06:20:12;5.33;;;3.73;;
68583;SDS011;55557;49.220;11.150;2023-09-18T06:22:39;4.47;;;4.07;;
68583;SDS011;55557;49.220;11.150;2023-09-18T06:25:06;8.43;;;4.53;;
68583;SDS011;55557;49.220;11.150;2023-09-18T06:27:35;5.30;;;4.43;;
68583;SDS011;55557;49.220;11.150;2023-09-18T06:30:02;4.93;;;4.43;;
68583;SDS011;55557;49.220;11.150;2023-09-18T06:32:28;15.17;;;4.60;;
68583;SDS011;55557;49.220;11.150;2023-09-18T06:34:54;5.03;;;4.40;;
68583;SDS011;55557;49.220;11.150;2023-09-18T06:37:22;5.67;;;4.00;;
68583;SDS011;55557;49.220;11.150;2023-09-18T06:39:48;7.63;;;4.47;;
68583;SDS011;55557;49.220;11.150;2023-09-18T06:42:14;4.77;;;4.10;;
68583;SDS011;55557;49.220;11.150;2023-09-18T06:44:40;7.00;;;4.10;;
68583;SDS011;55557;49.220;11.150;2023-09-18T06:47:06;5.10;;;4.03;;
68583;SDS011;55557;49.220;11.150;2023-09-18T06:49:51;5.57;;;4.60;;
68583;SDS011;55557;49.220;11.150;2023-09-18T06:52:17;4.63;;;3.63;;
68583;SDS011;55557;49.220;11.150;2023-09-18T06:54:43;5.40;;;4.00;;
68583;SDS011;55557;49.220;11.150;2023-09-18T06:57:10;6.60;;;4.70;;
68583;SDS011;55557;49.220;11.150;2023-09-18T06:59:36;8.53;;;4.23;;
68583;SDS011;55557;49.220;11.150;2023-09-18T07:02:02;5.57;;;4.53;;
68583;SDS011;55557;49.220;11.150;2023-09-18T07:04:28;6.97;;;4.70;;
68583;SDS011;55557;49.220;11.150;2023-09-18T07:06:54;18.53;;;4.73;;
68583;SDS011;55557;49.220;11.150;2023-09-18T07:09:21;7.77;;;4.57;;
68583;SDS011;55557;49.220;11.150;2023-09-18T07:11:51;6.50;;;4.73;;
68583;SDS011;55557;49.220;11.150;2023-09-18T07:14:17;7.90;;;4.80;;
68583;SDS011;55557;49.220;11.150;2023-09-18T07:16:43;12.87;;;4.27;;
68583;SDS011;55557;49.220;11.150;2023-09-18T07:19:09;6.43;;;4.60;;
68583;SDS011;55557;49.220;11.150;2023-09-18T07:21:37;7.93;;;4.30;;
68583;SDS011;55557;49.220;11.150;2023-09-18T07:24:05;5.73;;;4.23;;
68583;SDS011;55557;49.220;11.150;2023-09-18T07:26:32;8.17;;;4.47;;
68583;SDS011;55557;49.220;11.150;2023-09-18T07:28:58;6.23;;;4.10;;
68583;SDS011;55557;49.220;11.150;2023-09-18T07:31:26;14.47;;;4.73;;
68583;SDS011;55557;49.220;11.150;2023-09-18T07:33:52;6.97;;;4.77;;
68583;SDS011;55557;49.220;11.150;2023-09-18T07:36:18;12.50;;;4.60;;
68583;SDS011;55557;49.220;11.150;2023-09-18T07:38:45;9.90;;;4.73;;
68583;SDS011;55557;49.220;11.150;2023-09-18T07:41:12;9.93;;;4.63;;
68583;SDS011;55557;49.220;11.150;2023-09-18T07:43:40;12.87;;;4.60;;
68583;SDS011;55557;49.220;11.150;2023-09-18T07:46:06;8.93;;;5.17;;
68583;SDS011;55557;49.220;11.150;2023-09-18T07:48:32;11.17;;;4.70;;
68583;SDS011;55557;49.220;11.150;2023-09-18T07:50:59;7.50;;;4.73;;
68583;SDS011;55557;49.220;11.150;2023-09-18T07:53:26;10.50;;;4.30;;
68583;SDS011;55557;49.220;11.150;2023-09-18T07:55:56;5.70;;;3.80;;
68583;SDS011;55557;49.220;11.150;2023-09-18T07:58:26;6.33;;;4.20;;
68583;SDS011;55557;49.220;11.150;2023-09-18T08:00:53;7.70;;;4.17;;
68583;SDS011;55557;49.220;11.150;2023-09-18T08:03:19;6.50;;;4.00;;
68583;SDS011;55557;49.220;11.150;2023-09-18T08:05:49;9.67;;;4.23;;
68583;SDS011;55557;49.220;11.150;2023-09-18T08:08:16;7.23;;;4.00;;
68583;SDS011;55557;49.220;11.150;2023-09-18T08:10:42;5.47;;;4.00;;
68583;SDS011;55557;49.220;11.150;2023-09-18T08:13:09;6.90;;;3.90;;
68583;SDS011;55557;49.220;11.150;2023-09-18T08:15:35;4.47;;;3.77;;
68583;SDS011;55557;49.220;11.150;2023-09-18T08:18:01;5.77;;;3.90;;
68583;SDS011;55557;49.220;11.150;2023-09-18T08:20:27;7.60;;;3.83;;
68583;SDS011;55557;49.220;11.150;2023-09-18T08:22:54;5.47;;;3.67;;
68583;SDS011;55557;49.220;11.150;2023-09-18T08:25:20;5.53;;;3.30;;
68583;SDS011;55557;49.220;11.150;2023-09-18T08:27:46;5.93;;;4.03;;
68583;SDS011;55557;49.220;11.150;2023-09-18T08:30:13;7.47;;;3.70;;
68583;SDS011;55557;49.220;11.150;2023-09-18T08:32:39;8.50;;;3.20;;
68583;SDS011;55557;49.220;11.150;2023-09-18T08:35:05;5.60;;;3.77;;
68583;SDS011;55557;49.220;11.150;2023-09-18T08:37:32;5.90;;;3.53;;
68583;SDS011;55557;49.220;11.150;2023-09-18T08:39:58;5.90;;;3.27;;
68583;SDS011;55557;49.220;11.150;2023-09-18T08:42:34;5.90;;;3.67;;
68583;SDS011;55557;49.220;11.150;2023-09-18T08:45:01;8.13;;;3.30;;
68583;SDS011;55557;49.220;11.150;2023-09-18T08:47:29;8.30;;;3.33;;
68583;SDS011;55557;49.220;11.150;2023-09-18T08:49:56;8.17;;;3.23;;
68583;SDS011;55557;49.220;11.150;2023-09-18T08:52:23;5.37;;;3.07;;
68583;SDS011;55557;49.220;11.150;2023-09-18T08:54:49;8.17;;;3.17;;
68583;SDS011;55557;49.220;11.150;2023-09-18T08:57:16;7.23;;;3.27;;
68583;SDS011;55557;49.220;11.150;2023-09-18T08:59:42;8.63;;;3.03;;
68583;SDS011;55557;49.220;11.150;2023-09-18T09:02:09;8.00;;;3.33;;
68583;SDS011;55557;49.220;11.150;2023-09-18T09:04:37;5.50;;;2.77;;
68583;SDS011;55557;49.220;11.150;2023-09-18T09:07:03;6.03;;;3.10;;
68583;SDS011;55557;49.220;11.150;2023-09-18T09:09:29;8.47;;;3.23;;
68583;SDS011;55557;49.220;11.150;2023-09-18T09:11:56;6.53;;;2.97;;
68583;SDS011;55557;49.220;11.150;2023-09-18T09:14:22;9.60;;;3.10;;
68583;SDS011;55557;49.220;11.150;2023-09-18T09:16:53;6.77;;;3.20;;
68583;SDS011;55557;49.220;11.150;2023-09-18T09:19:28;8.07;;;2.87;;
68583;SDS011;55557;49.220;11.150;2023-09-18T09:21:55;5.67;;;3.00;;
68583;SDS011;55557;49.220;11.150;2023-09-18T09:24:37;5.67;;;2.73;;
68583;SDS011;55557;49.220;11.150;2023-09-18T09:27:03;6.17;;;2.53;;
68583;SDS011;55557;49.220;11.150;2023-09-18T09:29:29;7.43;;;2.93;;
68583;SDS011;55557;49.220;11.150;2023-09-18T09:31:56;3.90;;;2.20;;
68583;SDS011;55557;49.220;11.150;2023-09-18T09:34:37;12.37;;;3.10;;
68583;SDS011;55557;49.220;11.150;2023-09-18T09:37:03;7.00;;;2.93;;
68583;SDS011;55557;49.220;11.150;2023-09-18T09:39:29;4.73;;;2.57;;
68583;SDS011;55557;49.220;11.150;2023-09-18T09:41:59;7.83;;;2.60;;
68583;SDS011;55557;49.220;11.150;2023-09-18T09:44:25;7.23;;;3.10;;
68583;SDS011;55557;49.220;11.150;2023-09-18T09:46:53;5.30;;;2.50;;
68583;SDS011;55557;49.220;11.150;2023-09-18T09:49:22;7.80;;;2.53;;
68583;SDS011;55557;49.220;11.150;2023-09-18T09:51:49;8.47;;;3.03;;
68583;SDS011;55557;49.220;11.150;2023-09-18T09:54:19;9.87;;;3.27;;
68583;SDS011;55557;49.220;11.150;2023-09-18T09:56:59;4.23;;;2.20;;
68583;SDS011;55557;49.220;11.150;2023-09-18T09:59:28;7.53;;;3.10;;
68583;SDS011;55557;49.220;11.150;2023-09-18T10:01:54;8.47;;;2.40;;
68583;SDS011;55557;49.220;11.150;2023-09-18T10:04:21;5.77;;;2.23;;
68583;SDS011;55557;49.220;11.150;2023-09-18T10:06:51;9.77;;;2.53;;
68583;SDS011;55557;49.220;11.150;2023-09-18T10:09:19;8.23;;;2.50;;
68583;SDS011;55557;49.220;11.150;2023-09-18T10:11:45;5.20;;;2.23;;
68583;SDS011;55557;49.220;11.150;2023-09-18T10:14:20;6.57;;;2.73;;
68583;SDS011;55557;49.220;11.150;2023-09-18T10:16:51;6.07;;;2.17;;
68583;SDS011;55557;49.220;11.150;2023-09-18T10:24:32;5.00;;;2.13;;
68583;SDS011;55557;49.220;11.150;2023-09-18T10:27:00;8.20;;;2.40;;
68583;SDS011;55557;49.220;11.150;2023-09-18T10:29:28;9.77;;;2.70;;
68583;SDS011;55557;49.220;11.150;2023-09-18T10:31:55;3.03;;;2.40;;
68583;SDS011;55557;49.220;11.150;2023-09-18T10:34:22;4.47;;;2.20;;
68583;SDS011;55557;49.220;11.150;2023-09-18T10:36:49;6.40;;;2.63;;
68583;SDS011;55557;49.220;11.150;2023-09-18T10:39:16;7.67;;;3.20;;
68583;SDS011;55557;49.220;11.150;2023-09-18T10:41:49;4.73;;;2.67;;
68583;SDS011;55557;49.220;11.150;2023-09-18T10:44:16;5.93;;;2.53;;
68583;SDS011;55557;49.220;11.150;2023-09-18T10:46:43;6.03;;;2.23;;
68583;SDS011;55557;49.220;11.150;2023-09-18T10:49:09;5.40;;;1.97;;
68583;SDS011;55557;49.220;11.150;2023-09-18T10:51:37;2.47;;;1.43;;
68583;SDS011;55557;49.220;11.150;2023-09-18T10:54:07;6.67;;;2.07;;
68583;SDS011;55557;49.220;11.150;2023-09-18T10:56:33;7.50;;;1.53;;
68583;SDS011;55557;49.220;11.150;2023-09-18T10:59:00;5.37;;;1.40;;
68583;SDS011;55557;49.220;11.150;2023-09-18T11:01:27;2.33;;;1.40;;
68583;SDS011;55557;49.220;11.150;2023-09-18T11:03:57;3.13;;;1.60;;
68583;SDS011;55557;49.220;11.150;2023-09-18T11:06:25;3.40;;;1.40;;
68583;SDS011;55557;49.220;11.150;2023-09-18T11:08:55;5.13;;;1.30;;
68583;SDS011;55557;49.220;11.150;2023-09-18T11:11:26;5.60;;;2.27;;
68583;SDS011;55557;49.220;11.150;2023-09-18T11:13:54;6.77;;;1.60;;
68583;SDS011;55557;49.220;11.150;2023-09-18T11:18:50;6.30;;;1.57;;
68583;SDS011;55557;49.220;11.150;2023-09-18T11:21:23;2.00;;;1.47;;
68583;SDS011;55557;49.220;11.150;2023-09-18T11:23:57;3.57;;;1.67;;
68583;SDS011;55557;49.220;11.150;2023-09-18T11:26:23;6.63;;;2.23;;
68583;SDS011;55557;49.220;11.150;2023-09-18T11:28:49;6.03;;;1.67;;
68583;SDS011;55557;49.220;11.150;2023-09-18T11:31:18;5.93;;;1.40;;
68583;SDS011;55557;49.220;11.150;2023-09-18T11:33:47;3.50;;;1.40;;
68583;SDS011;55557;49.220;11.150;2023-09-18T11:36:14;1.57;;;0.97;;
68583;SDS011;55557;49.220;11.150;2023-09-18T11:41:22;4.73;;;1.50;;
68583;SDS011;55557;49.220;11.150;2023-09-18T11:43:50;5.40;;;1.73;;
68583;SDS011;55557;49.220;11.150;2023-09-18T11:46:19;5.73;;;1.50;;
68583;SDS011;55557;49.220;11.150;2023-09-18T11:48:49;2.43;;;1.13;;
68583;SDS011;55557;49.220;11.150;2023-09-18T11:51:24;4.30;;;1.50;;
68583;SDS011;55557;49.220;11.150;2023-09-18T11:53:51;4.20;;;1.27;;
68583;SDS011;55557;49.220;11.150;2023-09-18T11:56:19;5.20;;;1.47;;
68583;SDS011;55557;49.220;11.150;2023-09-18T11:58:47;4.07;;;1.17;;
68583;SDS011;55557;49.220;11.150;2023-09-18T12:01:13;5.43;;;2.63;;
68583;SDS011;55557;49.220;11.150;2023-09-18T12:03:40;7.37;;;1.57;;
68583;SDS011;55557;49.220;11.150;2023-09-18T12:06:06;6.83;;;1.50;;
68583;SDS011;55557;49.220;11.150;2023-09-18T12:08:34;5.93;;;1.67;;
68583;SDS011;55557;49.220;11.150;2023-09-18T12:11:04;3.47;;;1.73;;
68583;SDS011;55557;49.220;11.150;2023-09-18T12:13:33;2.60;;;1.40;;
68583;SDS011;55557;49.220;11.150;2023-09-18T12:16:00;2.63;;;1.17;;
68583;SDS011;55557;49.220;11.150;2023-09-18T12:18:26;2.17;;;1.27;;
68583;SDS011;55557;49.220;11.150;2023-09-18T12:20:56;4.10;;;1.27;;
68583;SDS011;55557;49.220;11.150;2023-09-18T12:23:24;4.07;;;1.40;;
68583;SDS011;55557;49.220;11.150;2023-09-18T12:25:50;3.90;;;1.30;;
68583;SDS011;55557;49.220;11.150;2023-09-18T12:28:22;5.53;;;1.17;;
68583;SDS011;55557;49.220;11.150;2023-09-18T12:30:48;5.00;;;1.40;;
68583;SDS011;55557;49.220;11.150;2023-09-18T12:33:17;2.50;;;0.97;;
68583;SDS011;55557;49.220;11.150;2023-09-18T12:35:45;2.63;;;0.87;;
68583;SDS011;55557;49.220;11.150;2023-09-18T12:38:18;2.17;;;1.10;;
68583;SDS011;55557;49.220;11.150;2023-09-18T12:40:47;2.90;;;1.47;;
68583;SDS011;55557;49.220;11.150;2023-09-18T12:43:14;2.83;;;1.03;;
68583;SDS011;55557;49.220;11.150;2023-09-18T12:45:40;6.93;;;1.47;;
68583;SDS011;55557;49.220;11.150;2023-09-18T12:48:07;7.93;;;1.60;;
68583;SDS011;55557;49.220;11.150;2023-09-18T12:50:33;9.33;;;1.27;;
68583;SDS011;55557;49.220;11.150;2023-09-18T12:53:06;6.60;;;0.90;;
68583;SDS011;55557;49.220;11.150;2023-09-18T12:55:32;1.60;;;0.67;;
68583;SDS011;55557;49.220;11.150;2023-09-18T12:57:58;6.23;;;1.10;;
68583;SDS011;55557;49.220;11.150;2023-09-18T13:00:30;9.00;;;1.27;;
68583;SDS011;55557;49.220;11.150;2023-09-18T13:02:56;1.40;;;0.70;;
68583;SDS011;55557;49.220;11.150;2023-09-18T13:05:23;5.23;;;1.20;;
68583;SDS011;55557;49.220;11.150;2023-09-18T13:07:57;3.53;;;1.03;;
68583;SDS011;55557;49.220;11.150;2023-09-18T13:10:27;6.93;;;1.37;;
68583;SDS011;55557;49.220;11.150;2023-09-18T13:12:53;2.03;;;1.30;;
68583;SDS011;55557;49.220;11.150;2023-09-18T13:15:30;2.20;;;1.03;;
68583;SDS011;55557;49.220;11.150;2023-09-18T13:17:58;2.00;;;1.20;;
68583;SDS011;55557;49.220;11.150;2023-09-18T13:20:25;4.47;;;1.80;;
68583;SDS011;55557;49.220;11.150;2023-09-18T13:22:52;6.00;;;1.50;;
68583;SDS011;55557;49.220;11.150;2023-09-18T13:25:19;3.27;;;1.53;;
68583;SDS011;55557;49.220;11.150;2023-09-18T13:27:46;7.47;;;1.17;;
68583;SDS011;55557;49.220;11.150;2023-09-18T13:30:12;3.50;;;1.30;;
68583;SDS011;55557;49.220;11.150;2023-09-18T13:32:43;1.67;;;1.33;;
68583;SDS011;55557;49.220;11.150;2023-09-18T13:35:09;2.53;;;1.20;;
68583;SDS011;55557;49.220;11.150;2023-09-18T13:37:38;3.30;;;1.00;;
68583;SDS011;55557;49.220;11.150;2023-09-18T13:40:05;12.23;;;1.70;;
68583;SDS011;55557;49.220;11.150;2023-09-18T13:42:37;2.30;;;1.70;;
68583;SDS011;55557;49.220;11.150;2023-09-18T13:45:06;2.97;;;1.43;;
68583;SDS011;55557;49.220;11.150;2023-09-18T13:47:33;6.70;;;1.90;;
68583;SDS011;55557;49.220;11.150;2023-09-18T13:50:00;5.70;;;1.97;;
68583;SDS011;55557;49.220;11.150;2023-09-18T13:52:27;8.73;;;2.60;;
68583;SDS011;55557;49.220;11.150;2023-09-18T13:54:53;3.23;;;1.53;;
68583;SDS011;55557;49.220;11.150;2023-09-18T13:57:19;4.93;;;1.53;;
68583;SDS011;55557;49.220;11.150;2023-09-18T13:59:46;5.70;;;1.37;;
68583;SDS011;55557;49.220;11.150;2023-09-18T14:02:13;3.07;;;1.20;;
68583;SDS011;55557;49.220;11.150;2023-09-18T14:04:40;4.43;;;1.37;;
68583;SDS011;55557;49.220;11.150;2023-09-18T14:07:06;2.57;;;1.00;;
68583;SDS011;55557;49.220;11.150;2023-09-18T14:09:33;1.43;;;0.90;;
68583;SDS011;55557;49.220;11.150;2023-09-18T14:12:00;0.70;;;0.70;;
68583;SDS011;55557;49.220;11.150;2023-09-18T14:14:27;3.77;;;1.00;;
68583;SDS011;55557;49.220;11.150;2023-09-18T14:16:53;0.97;;;0.60;;
68583;SDS011;55557;49.220;11.150;2023-09-18T14:19:20;2.80;;;1.00;;
68583;SDS011;55557;49.220;11.150;2023-09-18T14:21:46;1.50;;;0.97;;
68583;SDS011;55557;49.220;11.150;2023-09-18T14:24:14;1.50;;;0.70;;
68583;SDS011;55557;49.220;11.150;2023-09-18T14:26:43;2.40;;;1.00;;
68583;SDS011;55557;49.220;11.150;2023-09-18T14:29:09;3.53;;;0.93;;
68583;SDS011;55557;49.220;11.150;2023-09-18T14:31:38;1.07;;;0.90;;
68583;SDS011;55557;49.220;11.150;2023-09-18T14:34:04;1.80;;;0.97;;
68583;SDS011;55557;49.220;11.150;2023-09-18T14:36:34;2.40;;;1.17;;
68583;SDS011;55557;49.220;11.150;2023-09-18T14:39:01;2.33;;;0.67;;
68583;SDS011;55557;49.220;11.150;2023-09-18T14:41:27;0.90;;;0.70;;
68583;SDS011;55557;49.220;11.150;2023-09-18T14:43:53;2.43;;;0.90;;
68583;SDS011;55557;49.220;11.150;2023-09-18T14:46:22;1.57;;;0.80;;
68583;SDS011;55557;49.220;11.150;2023-09-18T14:48:48;4.13;;;0.87;;